Tabor, Iowa
Current Conditions -  °F | °C
As of 11:55 PM on Sunday 19 Oct 2014 (Local Time) from KPMV Reporting Station
Clear Clear  
Wind Chill: 56°   Ceiling: Unl
Heat Index: 56°   Visibility: 10mi
Dew Point: 46°   Wind: 7mph
Humidity: 69%   Direction: 230°SW
Pressure: 29.96"   Gusts: NA
Location:  40.9°N, 95.67°W
Report Text: KPMV 200455Z AUTO 23006KT 10SM CLR 14/08 A2996 RMK AO2 T01360080
Loading
Personal Weather Stations






























Interactive Weather Map
Tropical Storm Tracking
New forecast layout! Learn more

10-Day Weather Forecast

Advertisements
Track Severe Weather on mobile